WetterOnline ( https://www.wetteronline.de )

Wetter aktuell Merzig

Aktuelles Wetter: Berus (367m)

6-stündlich | Neueste Meldungen
Ortszeit Temperatur Wetter
Fr, 01.03. 1:00 4.5° C bedeckt
Do, 29.02. 19:00 7.1° C wolkenlos
Do, 29.02. 13:00 5.8° C wolkenlos
Do, 29.02. 7:00 0.8° C Nebel
Do, 29.02. 1:00 1.7° C Nebel
Mi, 28.02. 19:00 2.7° C bedeckt
Mi, 28.02. 7:00 0.8° C Nebel
Mi, 28.02. 1:00 3.6° C wolkenlos
Ortszeit Temperatur Wetter
Fr, 01.03. 6:00 5.3° C bedeckt
Fr, 01.03. 5:30 4.9° C bewölkt
Fr, 01.03. 5:20 4.9° C bewölkt
Fr, 01.03. 5:10 5.0° C Sprühregen
Fr, 01.03. 5:00 5.1° C bedeckt
Fr, 01.03. 4:50 5.1° C bedeckt
Fr, 01.03. 4:30 5.0° C bedeckt
Fr, 01.03. 4:00 4.9° C bedeckt
Fr, 01.03. 3:30 4.8° C bewölkt
Fr, 01.03. 3:00 4.6° C bedeckt
Ortszeit Relative Feuchte Sichtweite
Fr, 01.03. 1:00 83% 22 km
Do, 29.02. 19:00 76% 35 km
Do, 29.02. 13:00 69% 35 km
Do, 29.02. 7:00 100% <100 m
Do, 29.02. 1:00 99% <100 m
Mi, 28.02. 19:00 97% 3.4 km
Mi, 28.02. 7:00 99% 0.6 km
Mi, 28.02. 1:00 92% 8 km
Ortszeit Relative Feuchte Sichtweite
Fr, 01.03. 6:00 90% 21 km
Fr, 01.03. 5:30 89% 14 km
Fr, 01.03. 5:20 89% -
Fr, 01.03. 5:10 88% -
Fr, 01.03. 5:00 84% 27 km
Fr, 01.03. 4:50 84% -
Fr, 01.03. 4:30 84% 25 km
Fr, 01.03. 4:00 86% 24 km
Fr, 01.03. 3:30 85% 25 km
Fr, 01.03. 3:00 86% 23 km
Ortszeit Niederschlagsmenge Niederschlagsart
Fr, 01.03. 1:00 0.0 l/m2 in 6 Std. -
Do, 29.02. 19:00 0.0 l/m2 in 12 Std. -
Do, 29.02. 13:00 0.0 l/m2 in 6 Std. -
Do, 29.02. 7:00 0.0 l/m2 in 12 Std. -
Do, 29.02. 1:00 0.0 l/m2 in 6 Std. -
Mi, 28.02. 19:00 0.0 l/m2 in 3 Std. -
Mi, 28.02. 7:00 0.0 l/m2 in 12 Std. -
Mi, 28.02. 1:00 0.0 l/m2 in 6 Std. -
Ortszeit Niederschlagsmenge Niederschlagsart
Fr, 01.03. 6:00 <0.05 l/m2 in 1 Std. Regen
Fr, 01.03. 5:30 <0.05 l/m2 in 30 Min Schneeregen
Fr, 01.03. 5:20 keine Meldung -
Fr, 01.03. 5:10 keine Meldung -
Fr, 01.03. 5:00 <0.05 l/m2 in 1 Std. Sprühregen
Fr, 01.03. 4:50 keine Meldung -
Fr, 01.03. 4:30 0.0 l/m2 in 30 Min -
Fr, 01.03. 4:00 <0.05 l/m2 in 1 Std. Sprühregen
Fr, 01.03. 3:30 <0.05 l/m2 in 30 Min Schnee
Fr, 01.03. 3:00 <0.05 l/m2 in 1 Std. Sprühregen
Ortszeit Stärke Spitze Richtung
km/h Bft. km/h Grad Sektor
Fr, 01.03. 1:00 15 3 20 210° SW
Do, 29.02. 19:00 7 2 25 170° S
Do, 29.02. 13:00 7 2 14 150° SO
Do, 29.02. 7:00 6 1 13 160° S
Do, 29.02. 1:00 4 1 18 210° SW
Mi, 28.02. 19:00 9 2 13 240° SW
Mi, 28.02. 7:00 7 2 22 20° N
Mi, 28.02. 1:00 15 3 33 40° NO
Ortszeit Stärke Spitze Richtung
km/h Bft. km/h Grad Sektor
Fr, 01.03. 6:00 18 3 25 230° SW
Fr, 01.03. 5:30 14 3 25 230° SW
Fr, 01.03. 5:20 14 3 - 230° SW
Fr, 01.03. 5:10 14 3 - 220° SW
Fr, 01.03. 5:00 14 3 22 200° S
Fr, 01.03. 4:50 14 3 - 200° S
Fr, 01.03. 4:30 11 2 18 210° SW
Fr, 01.03. 4:00 13 3 19 220° SW
Fr, 01.03. 3:30 13 3 19 210° SW
Fr, 01.03. 3:00 11 2 22 200° S
Ortszeit Untergrenze Bedeckung Gattung
total tief tief mittel hoch
Fr, 01.03. 1:00 1020 m 8/8 8/8 - - -
Do, 29.02. 19:00 - 0/8 0/8 - - -
Do, 29.02. 13:00 - 0/8 0/8 - - -
Do, 29.02. 7:00 <30 m 8/8 0/8 - - -
Do, 29.02. 1:00 <30 m 8/8 0/8 - - -
Mi, 28.02. 19:00 5400 m 8/8 8/8 - - -
Mi, 28.02. 7:00 60 m 5/8 1/8 - - -
Mi, 28.02. 1:00 - 0/8 0/8 - - -
Ortszeit Bedeckungsgrad in Achtel und Wolkenuntergrenze
Fr, 01.03. 6:00 7(360m) 8(510m)
Fr, 01.03. 5:30 7(360m)
Fr, 01.03. 5:20 7(360m)
Fr, 01.03. 5:10 7
Fr, 01.03. 5:00 8(450m)
Fr, 01.03. 4:50 8(450m)
Fr, 01.03. 4:30 7(480m) 7(630m) 8(810m)
Fr, 01.03. 4:00 8(630m)
Fr, 01.03. 3:30 7(600m) 7(1050m) 7(1500m)
Fr, 01.03. 3:00 5(750m) 8(990m) 8(1500m)
Ortszeit Luftdruck NN (hPa) Tendenz (hPa in 3 Std.)
Fr, 01.03. 1:00 1007 - 1,0
Do, 29.02. 19:00 1009 - 1,5
Do, 29.02. 13:00 1014 - 2,2
Do, 29.02. 7:00 1019 - 1,4
Do, 29.02. 1:00 1022 - 1,2
Mi, 28.02. 19:00 1023 - 0,1
Mi, 28.02. 7:00 1022 + 1,4
Mi, 28.02. 1:00 1020 + 1,1
Ortszeit Luftdruck NN (hPa) Tendenz (hPa in 3 Std.)
Fr, 01.03. 6:00 1007 + 0,2
Fr, 01.03. 5:30 1007 - 0,3
Fr, 01.03. 5:20 1007 keine Meldung
Fr, 01.03. 5:10 1007 keine Meldung
Fr, 01.03. 5:00 1006 - 0,6
Fr, 01.03. 4:50 1006 keine Meldung
Fr, 01.03. 4:30 1006 - 1,0
Fr, 01.03. 4:00 1006 - 0,8
Fr, 01.03. 3:30 1006 - 0,9
Fr, 01.03. 3:00 1007 - 0,7
Ortszeit Schneehöhe (cm)
Fr, 01.03. 1:00 0
Do, 29.02. 19:00 0
Do, 29.02. 13:00 0
Do, 29.02. 7:00 0
Do, 29.02. 1:00 0
Mi, 28.02. 19:00 0
Mi, 28.02. 7:00 0
Mi, 28.02. 1:00 0
Ortszeit Schneehöhe (cm)
Fr, 01.03. 6:00 0
Fr, 01.03. 5:30 0
Fr, 01.03. 5:20 0
Fr, 01.03. 5:10 -
Fr, 01.03. 5:00 0
Fr, 01.03. 4:50 0
Fr, 01.03. 4:30 0
Fr, 01.03. 4:00 0
Fr, 01.03. 3:30 0
Fr, 01.03. 3:00 0
Link zu dieser Seite / Seite empfehlen

Das Wetter in ...